sensor_id;sensor_type;location;lat;lon;timestamp;temperature;humidity
43089;DHT22;28709;52.030;5.652;2023-08-08T00:00:26;14.70;99.90
43089;DHT22;28709;52.030;5.652;2023-08-08T00:02:52;14.70;99.90
43089;DHT22;28709;52.030;5.652;2023-08-08T00:05:18;14.70;99.90
43089;DHT22;28709;52.030;5.652;2023-08-08T00:07:43;14.70;99.90
43089;DHT22;28709;52.030;5.652;2023-08-08T00:10:09;14.70;99.90
43089;DHT22;28709;52.030;5.652;2023-08-08T00:12:35;14.70;99.90
43089;DHT22;28709;52.030;5.652;2023-08-08T00:15:01;14.80;99.90
43089;DHT22;28709;52.030;5.652;2023-08-08T00:17:26;14.80;99.90
43089;DHT22;28709;52.030;5.652;2023-08-08T00:19:52;14.80;99.90
43089;DHT22;28709;52.030;5.652;2023-08-08T00:22:17;14.80;99.90
43089;DHT22;28709;52.030;5.652;2023-08-08T00:24:43;14.90;99.90
43089;DHT22;28709;52.030;5.652;2023-08-08T00:27:09;14.80;99.90
43089;DHT22;28709;52.030;5.652;2023-08-08T00:29:34;14.80;99.90
43089;DHT22;28709;52.030;5.652;2023-08-08T00:32:00;14.90;99.90
43089;DHT22;28709;52.030;5.652;2023-08-08T00:34:26;14.90;99.90
43089;DHT22;28709;52.030;5.652;2023-08-08T00:36:51;14.90;99.90
43089;DHT22;28709;52.030;5.652;2023-08-08T00:39:17;14.90;99.90
43089;DHT22;28709;52.030;5.652;2023-08-08T00:41:42;14.90;99.90
43089;DHT22;28709;52.030;5.652;2023-08-08T00:44:08;15.00;99.90
43089;DHT22;28709;52.030;5.652;2023-08-08T00:46:34;15.00;99.90
43089;DHT22;28709;52.030;5.652;2023-08-08T00:48:59;15.00;99.90
43089;DHT22;28709;52.030;5.652;2023-08-08T00:51:25;15.00;99.90
43089;DHT22;28709;52.030;5.652;2023-08-08T00:53:51;15.00;99.90
43089;DHT22;28709;52.030;5.652;2023-08-08T00:56:17;15.00;99.90
43089;DHT22;28709;52.030;5.652;2023-08-08T00:58:43;15.00;99.90
43089;DHT22;28709;52.030;5.652;2023-08-08T01:01:12;15.00;99.90
43089;DHT22;28709;52.030;5.652;2023-08-08T01:03:38;15.00;99.90
43089;DHT22;28709;52.030;5.652;2023-08-08T01:06:11;15.00;99.90
43089;DHT22;28709;52.030;5.652;2023-08-08T01:09:17;14.90;99.90
43089;DHT22;28709;52.030;5.652;2023-08-08T01:11:46;14.80;99.90
43089;DHT22;28709;52.030;5.652;2023-08-08T01:14:15;14.70;99.90
43089;DHT22;28709;52.030;5.652;2023-08-08T01:16:42;14.60;99.90
43089;DHT22;28709;52.030;5.652;2023-08-08T01:19:13;14.60;99.90
43089;DHT22;28709;52.030;5.652;2023-08-08T01:21:41;14.60;99.90
43089;DHT22;28709;52.030;5.652;2023-08-08T01:24:24;14.60;99.90
43089;DHT22;28709;52.030;5.652;2023-08-08T01:26:55;14.60;99.90
43089;DHT22;28709;52.030;5.652;2023-08-08T01:29:21;14.60;99.90
43089;DHT22;28709;52.030;5.652;2023-08-08T01:31:46;14.60;99.90
43089;DHT22;28709;52.030;5.652;2023-08-08T01:34:12;14.50;99.90
43089;DHT22;28709;52.030;5.652;2023-08-08T01:39:19;14.50;99.90
43089;DHT22;28709;52.030;5.652;2023-08-08T01:41:47;14.50;99.90
43089;DHT22;28709;52.030;5.652;2023-08-08T01:44:13;14.50;99.90
43089;DHT22;28709;52.030;5.652;2023-08-08T01:46:39;14.50;99.90
43089;DHT22;28709;52.030;5.652;2023-08-08T01:49:05;14.50;99.90
43089;DHT22;28709;52.030;5.652;2023-08-08T01:51:31;14.50;99.90
43089;DHT22;28709;52.030;5.652;2023-08-08T01:53:56;14.50;99.90
43089;DHT22;28709;52.030;5.652;2023-08-08T01:56:22;14.50;99.90
43089;DHT22;28709;52.030;5.652;2023-08-08T01:58:48;14.50;99.90
43089;DHT22;28709;52.030;5.652;2023-08-08T02:01:13;14.40;99.90
43089;DHT22;28709;52.030;5.652;2023-08-08T02:03:39;14.50;99.90
43089;DHT22;28709;52.030;5.652;2023-08-08T02:06:04;14.50;99.90
43089;DHT22;28709;52.030;5.652;2023-08-08T02:08:30;14.50;99.90
43089;DHT22;28709;52.030;5.652;2023-08-08T02:10:56;14.50;99.90
43089;DHT22;28709;52.030;5.652;2023-08-08T02:13:21;14.40;99.90
43089;DHT22;28709;52.030;5.652;2023-08-08T02:15:47;14.40;99.90
43089;DHT22;28709;52.030;5.652;2023-08-08T02:18:13;14.40;99.90
43089;DHT22;28709;52.030;5.652;2023-08-08T02:20:39;14.40;99.90
43089;DHT22;28709;52.030;5.652;2023-08-08T02:23:04;14.40;99.90
43089;DHT22;28709;52.030;5.652;2023-08-08T02:25:30;14.40;99.90
43089;DHT22;28709;52.030;5.652;2023-08-08T02:27:56;14.40;99.90
43089;DHT22;28709;52.030;5.652;2023-08-08T02:30:22;14.40;99.90
43089;DHT22;28709;52.030;5.652;2023-08-08T02:32:48;14.40;99.90
43089;DHT22;28709;52.030;5.652;2023-08-08T02:35:14;14.40;99.90
43089;DHT22;28709;52.030;5.652;2023-08-08T02:37:39;14.40;99.90
43089;DHT22;28709;52.030;5.652;2023-08-08T02:40:06;14.40;99.90
43089;DHT22;28709;52.030;5.652;2023-08-08T02:42:32;14.40;99.90
43089;DHT22;28709;52.030;5.652;2023-08-08T02:44:57;14.40;99.90
43089;DHT22;28709;52.030;5.652;2023-08-08T02:47:23;14.40;99.90
43089;DHT22;28709;52.030;5.652;2023-08-08T02:49:50;14.40;99.90
43089;DHT22;28709;52.030;5.652;2023-08-08T02:52:15;14.40;99.90
43089;DHT22;28709;52.030;5.652;2023-08-08T02:54:41;14.40;99.90
43089;DHT22;28709;52.030;5.652;2023-08-08T02:57:07;14.40;99.90
43089;DHT22;28709;52.030;5.652;2023-08-08T02:59:32;14.30;99.90
43089;DHT22;28709;52.030;5.652;2023-08-08T03:01:58;14.30;99.90
43089;DHT22;28709;52.030;5.652;2023-08-08T03:04:24;14.30;99.90
43089;DHT22;28709;52.030;5.652;2023-08-08T03:06:49;14.30;99.90
43089;DHT22;28709;52.030;5.652;2023-08-08T03:09:15;14.30;99.90
43089;DHT22;28709;52.030;5.652;2023-08-08T03:11:40;14.30;99.90
43089;DHT22;28709;52.030;5.652;2023-08-08T03:14:09;14.30;99.90
43089;DHT22;28709;52.030;5.652;2023-08-08T03:16:34;14.40;99.90
43089;DHT22;28709;52.030;5.652;2023-08-08T03:19:00;14.40;99.90
43089;DHT22;28709;52.030;5.652;2023-08-08T03:21:26;14.30;99.90
43089;DHT22;28709;52.030;5.652;2023-08-08T03:23:53;14.30;99.90
43089;DHT22;28709;52.030;5.652;2023-08-08T03:26:19;14.30;99.90
43089;DHT22;28709;52.030;5.652;2023-08-08T03:28:44;14.30;99.90
43089;DHT22;28709;52.030;5.652;2023-08-08T03:31:10;14.40;99.90
43089;DHT22;28709;52.030;5.652;2023-08-08T03:33:36;14.40;99.90
43089;DHT22;28709;52.030;5.652;2023-08-08T03:36:02;14.40;99.90
43089;DHT22;28709;52.030;5.652;2023-08-08T03:38:27;14.40;99.90
43089;DHT22;28709;52.030;5.652;2023-08-08T03:40:53;14.40;99.90
43089;DHT22;28709;52.030;5.652;2023-08-08T03:43:18;14.40;99.90
43089;DHT22;28709;52.030;5.652;2023-08-08T03:45:44;14.40;99.90
43089;DHT22;28709;52.030;5.652;2023-08-08T03:48:10;14.40;99.90
43089;DHT22;28709;52.030;5.652;2023-08-08T03:50:36;14.40;99.90
43089;DHT22;28709;52.030;5.652;2023-08-08T03:53:02;14.40;99.90
43089;DHT22;28709;52.030;5.652;2023-08-08T03:55:27;14.40;99.90
43089;DHT22;28709;52.030;5.652;2023-08-08T03:57:53;14.40;99.90
43089;DHT22;28709;52.030;5.652;2023-08-08T04:00:19;14.40;99.90
43089;DHT22;28709;52.030;5.652;2023-08-08T04:02:44;14.40;99.90
43089;DHT22;28709;52.030;5.652;2023-08-08T04:05:10;14.40;99.90
43089;DHT22;28709;52.030;5.652;2023-08-08T04:07:35;14.40;99.90
43089;DHT22;28709;52.030;5.652;2023-08-08T04:10:01;14.40;99.90
43089;DHT22;28709;52.030;5.652;2023-08-08T04:12:27;14.40;99.90
43089;DHT22;28709;52.030;5.652;2023-08-08T04:14:52;14.30;99.90
43089;DHT22;28709;52.030;5.652;2023-08-08T04:17:18;14.30;99.90
43089;DHT22;28709;52.030;5.652;2023-08-08T04:19:44;14.30;99.90
43089;DHT22;28709;52.030;5.652;2023-08-08T04:22:09;14.20;99.90
43089;DHT22;28709;52.030;5.652;2023-08-08T04:24:36;14.20;99.90
43089;DHT22;28709;52.030;5.652;2023-08-08T04:27:01;14.20;99.90
43089;DHT22;28709;52.030;5.652;2023-08-08T04:29:27;14.20;99.90
43089;DHT22;28709;52.030;5.652;2023-08-08T04:31:52;14.10;99.90
43089;DHT22;28709;52.030;5.652;2023-08-08T04:34:18;14.10;99.90
43089;DHT22;28709;52.030;5.652;2023-08-08T04:36:44;14.10;99.90
43089;DHT22;28709;52.030;5.652;2023-08-08T04:39:09;14.10;99.90
43089;DHT22;28709;52.030;5.652;2023-08-08T04:41:35;14.10;99.90
43089;DHT22;28709;52.030;5.652;2023-08-08T04:44:00;14.10;99.90
43089;DHT22;28709;52.030;5.652;2023-08-08T04:46:26;14.10;99.90
43089;DHT22;28709;52.030;5.652;2023-08-08T04:48:52;14.10;99.90
43089;DHT22;28709;52.030;5.652;2023-08-08T04:51:17;14.20;99.90
43089;DHT22;28709;52.030;5.652;2023-08-08T04:53:43;14.10;99.90
43089;DHT22;28709;52.030;5.652;2023-08-08T04:56:08;14.10;99.90
43089;DHT22;28709;52.030;5.652;2023-08-08T04:58:34;14.10;99.90
43089;DHT22;28709;52.030;5.652;2023-08-08T05:01:00;14.10;99.90
43089;DHT22;28709;52.030;5.652;2023-08-08T05:03:25;14.20;99.90
43089;DHT22;28709;52.030;5.652;2023-08-08T05:05:51;14.20;99.90
43089;DHT22;28709;52.030;5.652;2023-08-08T05:08:17;14.20;99.90
43089;DHT22;28709;52.030;5.652;2023-08-08T05:10:43;14.20;99.90
43089;DHT22;28709;52.030;5.652;2023-08-08T05:13:09;14.20;99.90
43089;DHT22;28709;52.030;5.652;2023-08-08T05:15:35;14.20;99.90
43089;DHT22;28709;52.030;5.652;2023-08-08T05:18:00;14.20;99.90
43089;DHT22;28709;52.030;5.652;2023-08-08T05:20:26;14.20;99.90
43089;DHT22;28709;52.030;5.652;2023-08-08T05:22:51;14.30;99.90
43089;DHT22;28709;52.030;5.652;2023-08-08T05:25:17;14.30;99.90
43089;DHT22;28709;52.030;5.652;2023-08-08T05:27:43;14.30;99.90
43089;DHT22;28709;52.030;5.652;2023-08-08T05:30:09;14.40;99.90
43089;DHT22;28709;52.030;5.652;2023-08-08T05:32:35;14.40;99.90
43089;DHT22;28709;52.030;5.652;2023-08-08T05:35:00;14.40;99.90
43089;DHT22;28709;52.030;5.652;2023-08-08T05:37:26;14.50;99.90
43089;DHT22;28709;52.030;5.652;2023-08-08T05:39:53;14.50;99.90
43089;DHT22;28709;52.030;5.652;2023-08-08T05:42:18;14.60;99.90
43089;DHT22;28709;52.030;5.652;2023-08-08T05:44:44;14.60;99.90
43089;DHT22;28709;52.030;5.652;2023-08-08T05:47:10;14.60;99.90
43089;DHT22;28709;52.030;5.652;2023-08-08T05:49:37;14.60;99.90
43089;DHT22;28709;52.030;5.652;2023-08-08T05:52:03;14.70;99.90
43089;DHT22;28709;52.030;5.652;2023-08-08T05:54:29;14.70;99.90
43089;DHT22;28709;52.030;5.652;2023-08-08T05:56:55;14.80;99.90
43089;DHT22;28709;52.030;5.652;2023-08-08T05:59:21;14.80;99.90
43089;DHT22;28709;52.030;5.652;2023-08-08T06:01:46;14.90;99.90
43089;DHT22;28709;52.030;5.652;2023-08-08T06:04:13;14.90;99.90
43089;DHT22;28709;52.030;5.652;2023-08-08T06:06:39;15.00;99.90
43089;DHT22;28709;52.030;5.652;2023-08-08T06:09:05;15.00;99.90
43089;DHT22;28709;52.030;5.652;2023-08-08T06:11:30;15.10;99.90
43089;DHT22;28709;52.030;5.652;2023-08-08T06:13:56;15.10;99.90
43089;DHT22;28709;52.030;5.652;2023-08-08T06:16:22;15.20;99.90
43089;DHT22;28709;52.030;5.652;2023-08-08T06:18:48;15.20;99.90
43089;DHT22;28709;52.030;5.652;2023-08-08T06:21:13;15.20;99.90
43089;DHT22;28709;52.030;5.652;2023-08-08T06:23:39;15.20;99.90
43089;DHT22;28709;52.030;5.652;2023-08-08T06:26:05;15.30;99.90
43089;DHT22;28709;52.030;5.652;2023-08-08T06:28:31;15.40;99.90
43089;DHT22;28709;52.030;5.652;2023-08-08T06:31:00;15.40;99.90
43089;DHT22;28709;52.030;5.652;2023-08-08T06:33:26;15.50;99.90
43089;DHT22;28709;52.030;5.652;2023-08-08T06:35:52;15.60;99.90
43089;DHT22;28709;52.030;5.652;2023-08-08T06:38:17;15.70;99.90
43089;DHT22;28709;52.030;5.652;2023-08-08T06:40:43;15.70;99.90
43089;DHT22;28709;52.030;5.652;2023-08-08T06:43:09;15.80;99.90
43089;DHT22;28709;52.030;5.652;2023-08-08T06:45:34;15.90;99.90
43089;DHT22;28709;52.030;5.652;2023-08-08T06:48:00;16.00;99.90
43089;DHT22;28709;52.030;5.652;2023-08-08T06:50:26;16.00;99.90
43089;DHT22;28709;52.030;5.652;2023-08-08T06:52:51;16.10;99.90
43089;DHT22;28709;52.030;5.652;2023-08-08T06:55:17;16.20;99.90
43089;DHT22;28709;52.030;5.652;2023-08-08T06:57:43;16.20;99.90
43089;DHT22;28709;52.030;5.652;2023-08-08T07:00:09;16.30;99.90
43089;DHT22;28709;52.030;5.652;2023-08-08T07:02:39;16.30;99.90
43089;DHT22;28709;52.030;5.652;2023-08-08T07:05:05;16.50;99.90
43089;DHT22;28709;52.030;5.652;2023-08-08T07:07:32;16.60;99.90
43089;DHT22;28709;52.030;5.652;2023-08-08T07:09:59;16.70;99.90
43089;DHT22;28709;52.030;5.652;2023-08-08T07:12:24;16.90;99.90
43089;DHT22;28709;52.030;5.652;2023-08-08T07:14:50;17.00;99.90
43089;DHT22;28709;52.030;5.652;2023-08-08T07:17:16;17.10;99.90
43089;DHT22;28709;52.030;5.652;2023-08-08T07:19:41;17.20;99.90
43089;DHT22;28709;52.030;5.652;2023-08-08T07:22:07;17.20;99.90
43089;DHT22;28709;52.030;5.652;2023-08-08T07:24:34;17.20;99.90
43089;DHT22;28709;52.030;5.652;2023-08-08T07:26:59;17.10;99.90
43089;DHT22;28709;52.030;5.652;2023-08-08T07:29:25;17.20;99.90
43089;DHT22;28709;52.030;5.652;2023-08-08T07:31:54;17.30;99.90
43089;DHT22;28709;52.030;5.652;2023-08-08T07:34:20;17.40;99.90
43089;DHT22;28709;52.030;5.652;2023-08-08T07:36:47;17.50;99.90
43089;DHT22;28709;52.030;5.652;2023-08-08T07:39:12;17.70;99.90
43089;DHT22;28709;52.030;5.652;2023-08-08T07:41:38;17.70;99.90
43089;DHT22;28709;52.030;5.652;2023-08-08T07:44:04;17.80;99.90
43089;DHT22;28709;52.030;5.652;2023-08-08T07:46:30;18.00;99.90
43089;DHT22;28709;52.030;5.652;2023-08-08T07:48:56;18.10;99.90
43089;DHT22;28709;52.030;5.652;2023-08-08T07:51:24;18.20;99.90
43089;DHT22;28709;52.030;5.652;2023-08-08T07:53:50;18.30;99.90
43089;DHT22;28709;52.030;5.652;2023-08-08T07:56:16;18.30;99.90
43089;DHT22;28709;52.030;5.652;2023-08-08T07:58:41;18.20;99.90
43089;DHT22;28709;52.030;5.652;2023-08-08T08:01:07;18.20;99.90
43089;DHT22;28709;52.030;5.652;2023-08-08T08:03:32;18.20;99.90
43089;DHT22;28709;52.030;5.652;2023-08-08T08:05:58;18.20;99.90
43089;DHT22;28709;52.030;5.652;2023-08-08T08:08:24;18.40;99.90
43089;DHT22;28709;52.030;5.652;2023-08-08T08:10:50;18.50;99.90
43089;DHT22;28709;52.030;5.652;2023-08-08T08:13:17;18.70;99.90
43089;DHT22;28709;52.030;5.652;2023-08-08T08:15:43;18.80;99.90
43089;DHT22;28709;52.030;5.652;2023-08-08T08:18:08;18.90;99.90
43089;DHT22;28709;52.030;5.652;2023-08-08T08:20:34;18.90;99.90
43089;DHT22;28709;52.030;5.652;2023-08-08T08:23:00;18.90;99.90
43089;DHT22;28709;52.030;5.652;2023-08-08T08:25:25;18.90;99.90
43089;DHT22;28709;52.030;5.652;2023-08-08T08:27:51;18.80;99.90
43089;DHT22;28709;52.030;5.652;2023-08-08T08:30:17;18.70;99.90
43089;DHT22;28709;52.030;5.652;2023-08-08T08:32:44;18.70;99.90
43089;DHT22;28709;52.030;5.652;2023-08-08T08:35:10;18.90;99.90
43089;DHT22;28709;52.030;5.652;2023-08-08T08:37:37;19.10;99.90
43089;DHT22;28709;52.030;5.652;2023-08-08T08:40:03;19.20;99.90
43089;DHT22;28709;52.030;5.652;2023-08-08T08:42:33;19.20;99.90
43089;DHT22;28709;52.030;5.652;2023-08-08T08:44:59;19.30;99.90
43089;DHT22;28709;52.030;5.652;2023-08-08T08:47:29;19.30;99.90
43089;DHT22;28709;52.030;5.652;2023-08-08T08:49:57;19.30;99.90
43089;DHT22;28709;52.030;5.652;2023-08-08T08:52:23;19.20;99.90
43089;DHT22;28709;52.030;5.652;2023-08-08T08:54:51;19.00;99.90
43089;DHT22;28709;52.030;5.652;2023-08-08T08:57:17;19.00;99.90
43089;DHT22;28709;52.030;5.652;2023-08-08T08:59:44;19.20;99.90
43089;DHT22;28709;52.030;5.652;2023-08-08T09:02:10;19.40;99.90
43089;DHT22;28709;52.030;5.652;2023-08-08T09:04:37;19.50;99.90
43089;DHT22;28709;52.030;5.652;2023-08-08T09:07:05;19.50;99.90
43089;DHT22;28709;52.030;5.652;2023-08-08T09:09:32;19.50;99.90
43089;DHT22;28709;52.030;5.652;2023-08-08T09:11:58;19.50;99.90
43089;DHT22;28709;52.030;5.652;2023-08-08T09:14:25;19.50;99.90
43089;DHT22;28709;52.030;5.652;2023-08-08T09:16:52;19.40;99.90
43089;DHT22;28709;52.030;5.652;2023-08-08T09:19:20;19.40;99.90
43089;DHT22;28709;52.030;5.652;2023-08-08T09:21:46;19.50;99.90
43089;DHT22;28709;52.030;5.652;2023-08-08T09:24:12;19.60;99.90
43089;DHT22;28709;52.030;5.652;2023-08-08T09:26:40;19.60;99.90
43089;DHT22;28709;52.030;5.652;2023-08-08T09:29:05;19.70;99.90
43089;DHT22;28709;52.030;5.652;2023-08-08T09:31:31;19.80;99.90
43089;DHT22;28709;52.030;5.652;2023-08-08T09:34:00;19.90;99.90
43089;DHT22;28709;52.030;5.652;2023-08-08T09:36:26;19.90;99.90
43089;DHT22;28709;52.030;5.652;2023-08-08T09:38:55;19.80;99.90
43089;DHT22;28709;52.030;5.652;2023-08-08T09:41:22;19.60;99.90
43089;DHT22;28709;52.030;5.652;2023-08-08T09:43:49;19.60;99.90
43089;DHT22;28709;52.030;5.652;2023-08-08T09:46:15;19.70;99.90
43089;DHT22;28709;52.030;5.652;2023-08-08T09:48:43;19.80;99.90
43089;DHT22;28709;52.030;5.652;2023-08-08T09:51:09;19.80;99.90
43089;DHT22;28709;52.030;5.652;2023-08-08T09:53:35;19.90;99.90
43089;DHT22;28709;52.030;5.652;2023-08-08T09:56:03;19.80;99.90
43089;DHT22;28709;52.030;5.652;2023-08-08T09:58:29;19.80;99.90
43089;DHT22;28709;52.030;5.652;2023-08-08T10:00:55;19.80;99.90
43089;DHT22;28709;52.030;5.652;2023-08-08T10:03:21;19.70;99.90
43089;DHT22;28709;52.030;5.652;2023-08-08T10:05:47;19.80;99.90
43089;DHT22;28709;52.030;5.652;2023-08-08T10:08:17;19.90;99.90
43089;DHT22;28709;52.030;5.652;2023-08-08T10:10:45;20.20;99.90
43089;DHT22;28709;52.030;5.652;2023-08-08T10:13:21;20.50;99.90
43089;DHT22;28709;52.030;5.652;2023-08-08T10:15:47;20.60;99.90
43089;DHT22;28709;52.030;5.652;2023-08-08T10:18:14;20.60;99.90
43089;DHT22;28709;52.030;5.652;2023-08-08T10:20:42;20.40;99.90
43089;DHT22;28709;52.030;5.652;2023-08-08T10:23:08;20.20;99.90
43089;DHT22;28709;52.030;5.652;2023-08-08T10:25:34;20.00;99.90
43089;DHT22;28709;52.030;5.652;2023-08-08T10:28:03;19.80;99.90
43089;DHT22;28709;52.030;5.652;2023-08-08T10:30:29;20.00;99.90
43089;DHT22;28709;52.030;5.652;2023-08-08T10:32:57;20.20;99.90
43089;DHT22;28709;52.030;5.652;2023-08-08T10:35:36;20.20;99.90
43089;DHT22;28709;52.030;5.652;2023-08-08T10:38:08;20.40;99.90
43089;DHT22;28709;52.030;5.652;2023-08-08T10:40:34;20.60;99.90
43089;DHT22;28709;52.030;5.652;2023-08-08T10:42:59;20.70;99.90
43089;DHT22;28709;52.030;5.652;2023-08-08T10:45:35;20.80;99.90
43089;DHT22;28709;52.030;5.652;2023-08-08T10:48:08;20.70;99.90
43089;DHT22;28709;52.030;5.652;2023-08-08T10:50:39;20.60;99.20
43089;DHT22;28709;52.030;5.652;2023-08-08T10:53:08;20.40;99.90
43089;DHT22;28709;52.030;5.652;2023-08-08T10:55:35;20.30;99.90
43089;DHT22;28709;52.030;5.652;2023-08-08T10:58:06;20.30;99.90
43089;DHT22;28709;52.030;5.652;2023-08-08T11:00:34;20.40;99.90
43089;DHT22;28709;52.030;5.652;2023-08-08T11:03:01;20.50;99.90
43089;DHT22;28709;52.030;5.652;2023-08-08T11:05:31;20.50;99.50
43089;DHT22;28709;52.030;5.652;2023-08-08T11:07:57;20.20;99.90
43089;DHT22;28709;52.030;5.652;2023-08-08T11:10:23;20.20;99.90
43089;DHT22;28709;52.030;5.652;2023-08-08T11:13:00;20.00;99.90
43089;DHT22;28709;52.030;5.652;2023-08-08T11:15:27;19.90;99.90
43089;DHT22;28709;52.030;5.652;2023-08-08T11:17:55;20.00;99.90
43089;DHT22;28709;52.030;5.652;2023-08-08T11:20:21;20.10;99.90
43089;DHT22;28709;52.030;5.652;2023-08-08T11:22:55;20.10;99.90
43089;DHT22;28709;52.030;5.652;2023-08-08T11:25:22;20.10;99.90
43089;DHT22;28709;52.030;5.652;2023-08-08T11:27:54;20.20;99.90
43089;DHT22;28709;52.030;5.652;2023-08-08T11:30:21;20.40;99.90
43089;DHT22;28709;52.030;5.652;2023-08-08T11:32:48;20.50;99.90
43089;DHT22;28709;52.030;5.652;2023-08-08T11:35:23;20.50;99.90
43089;DHT22;28709;52.030;5.652;2023-08-08T11:37:53;20.50;99.80
43089;DHT22;28709;52.030;5.652;2023-08-08T11:40:19;20.40;99.30
43089;DHT22;28709;52.030;5.652;2023-08-08T11:42:46;20.50;99.90
43089;DHT22;28709;52.030;5.652;2023-08-08T11:45:13;20.70;99.60
43089;DHT22;28709;52.030;5.652;2023-08-08T11:47:39;20.80;99.60
43089;DHT22;28709;52.030;5.652;2023-08-08T11:50:06;20.90;99.70
43089;DHT22;28709;52.030;5.652;2023-08-08T11:52:34;20.90;99.30
43089;DHT22;28709;52.030;5.652;2023-08-08T11:55:00;20.90;99.10
43089;DHT22;28709;52.030;5.652;2023-08-08T11:57:27;21.00;99.10
43089;DHT22;28709;52.030;5.652;2023-08-08T11:59:56;21.00;99.40
43089;DHT22;28709;52.030;5.652;2023-08-08T12:02:26;21.00;99.40
43089;DHT22;28709;52.030;5.652;2023-08-08T12:04:52;21.00;99.00
43089;DHT22;28709;52.030;5.652;2023-08-08T12:07:18;20.80;99.00
43089;DHT22;28709;52.030;5.652;2023-08-08T12:09:47;20.80;98.60
43089;DHT22;28709;52.030;5.652;2023-08-08T12:12:13;20.70;98.80
43089;DHT22;28709;52.030;5.652;2023-08-08T12:14:39;20.70;99.20
43089;DHT22;28709;52.030;5.652;2023-08-08T12:17:07;20.90;98.80
43089;DHT22;28709;52.030;5.652;2023-08-08T12:19:34;20.90;98.20
43089;DHT22;28709;52.030;5.652;2023-08-08T12:21:59;20.90;98.20
43089;DHT22;28709;52.030;5.652;2023-08-08T12:24:25;20.80;98.50
43089;DHT22;28709;52.030;5.652;2023-08-08T12:26:51;20.70;98.90
43089;DHT22;28709;52.030;5.652;2023-08-08T12:29:17;20.70;99.10
43089;DHT22;28709;52.030;5.652;2023-08-08T12:31:42;20.80;98.40
43089;DHT22;28709;52.030;5.652;2023-08-08T12:34:08;20.90;99.10
43089;DHT22;28709;52.030;5.652;2023-08-08T12:36:34;20.90;98.40
43089;DHT22;28709;52.030;5.652;2023-08-08T12:39:00;20.80;98.60
43089;DHT22;28709;52.030;5.652;2023-08-08T12:41:25;20.70;98.50
43089;DHT22;28709;52.030;5.652;2023-08-08T12:43:52;20.70;98.60
43089;DHT22;28709;52.030;5.652;2023-08-08T12:46:17;20.70;98.80
43089;DHT22;28709;52.030;5.652;2023-08-08T12:48:43;20.70;99.10
43089;DHT22;28709;52.030;5.652;2023-08-08T12:51:10;20.70;99.00
43089;DHT22;28709;52.030;5.652;2023-08-08T12:53:35;20.80;98.50
43089;DHT22;28709;52.030;5.652;2023-08-08T12:56:01;20.50;98.50
43089;DHT22;28709;52.030;5.652;2023-08-08T12:58:27;20.40;98.70
43089;DHT22;28709;52.030;5.652;2023-08-08T13:00:53;20.40;99.20
43089;DHT22;28709;52.030;5.652;2023-08-08T13:03:18;20.30;99.70
43089;DHT22;28709;52.030;5.652;2023-08-08T13:05:44;20.20;99.90
43089;DHT22;28709;52.030;5.652;2023-08-08T13:08:10;20.10;99.70
43089;DHT22;28709;52.030;5.652;2023-08-08T13:10:36;20.10;99.80
43089;DHT22;28709;52.030;5.652;2023-08-08T13:13:02;20.20;99.90
43089;DHT22;28709;52.030;5.652;2023-08-08T13:15:27;20.30;99.90
43089;DHT22;28709;52.030;5.652;2023-08-08T13:17:53;20.50;99.90
43089;DHT22;28709;52.030;5.652;2023-08-08T13:20:19;20.60;99.50
43089;DHT22;28709;52.030;5.652;2023-08-08T13:22:44;20.60;99.60
43089;DHT22;28709;52.030;5.652;2023-08-08T13:25:10;20.70;99.90
43089;DHT22;28709;52.030;5.652;2023-08-08T13:27:36;20.70;99.90
43089;DHT22;28709;52.030;5.652;2023-08-08T13:30:02;20.70;99.90
43089;DHT22;28709;52.030;5.652;2023-08-08T13:32:28;20.70;99.90
43089;DHT22;28709;52.030;5.652;2023-08-08T13:34:53;20.70;99.90
43089;DHT22;28709;52.030;5.652;2023-08-08T13:37:19;20.80;99.90
43089;DHT22;28709;52.030;5.652;2023-08-08T13:39:45;20.70;99.80
43089;DHT22;28709;52.030;5.652;2023-08-08T13:42:10;20.60;99.90
43089;DHT22;28709;52.030;5.652;2023-08-08T13:44:36;20.30;99.90
43089;DHT22;28709;52.030;5.652;2023-08-08T13:47:02;20.10;99.90
43089;DHT22;28709;52.030;5.652;2023-08-08T13:49:28;20.10;99.90
43089;DHT22;28709;52.030;5.652;2023-08-08T13:51:54;20.10;99.90
43089;DHT22;28709;52.030;5.652;2023-08-08T13:54:20;20.20;99.90
43089;DHT22;28709;52.030;5.652;2023-08-08T13:56:46;20.30;99.90
43089;DHT22;28709;52.030;5.652;2023-08-08T13:59:11;20.30;99.90
43089;DHT22;28709;52.030;5.652;2023-08-08T14:01:37;20.30;99.90
43089;DHT22;28709;52.030;5.652;2023-08-08T14:04:03;20.30;99.90
43089;DHT22;28709;52.030;5.652;2023-08-08T14:06:29;20.30;99.90
43089;DHT22;28709;52.030;5.652;2023-08-08T14:08:56;20.30;99.90
43089;DHT22;28709;52.030;5.652;2023-08-08T14:11:22;20.20;99.90
43089;DHT22;28709;52.030;5.652;2023-08-08T14:13:48;20.10;99.90
43089;DHT22;28709;52.030;5.652;2023-08-08T14:16:14;20.10;99.90
43089;DHT22;28709;52.030;5.652;2023-08-08T14:18:40;20.00;99.90
43089;DHT22;28709;52.030;5.652;2023-08-08T14:21:06;20.00;99.90
43089;DHT22;28709;52.030;5.652;2023-08-08T14:23:32;20.00;99.90
43089;DHT22;28709;52.030;5.652;2023-08-08T14:25:57;20.00;99.90
43089;DHT22;28709;52.030;5.652;2023-08-08T14:28:23;19.90;99.90
43089;DHT22;28709;52.030;5.652;2023-08-08T14:30:49;19.90;99.90
43089;DHT22;28709;52.030;5.652;2023-08-08T14:33:15;19.80;99.90
43089;DHT22;28709;52.030;5.652;2023-08-08T14:35:41;19.80;99.90
43089;DHT22;28709;52.030;5.652;2023-08-08T14:38:07;19.80;99.90
43089;DHT22;28709;52.030;5.652;2023-08-08T14:40:33;19.80;99.90
43089;DHT22;28709;52.030;5.652;2023-08-08T14:43:00;19.90;99.90
43089;DHT22;28709;52.030;5.652;2023-08-08T14:45:26;19.90;99.90
43089;DHT22;28709;52.030;5.652;2023-08-08T14:47:52;19.90;99.90
43089;DHT22;28709;52.030;5.652;2023-08-08T14:50:18;19.90;99.90
43089;DHT22;28709;52.030;5.652;2023-08-08T14:52:44;19.90;99.90
43089;DHT22;28709;52.030;5.652;2023-08-08T14:55:10;20.00;99.90
43089;DHT22;28709;52.030;5.652;2023-08-08T14:57:36;19.90;99.90
43089;DHT22;28709;52.030;5.652;2023-08-08T15:00:02;19.90;99.90
43089;DHT22;28709;52.030;5.652;2023-08-08T15:02:29;20.10;99.90
43089;DHT22;28709;52.030;5.652;2023-08-08T15:04:55;20.30;99.90
43089;DHT22;28709;52.030;5.652;2023-08-08T15:07:20;20.40;99.20
43089;DHT22;28709;52.030;5.652;2023-08-08T15:09:46;20.40;99.00
43089;DHT22;28709;52.030;5.652;2023-08-08T15:12:16;20.40;99.00
43089;DHT22;28709;52.030;5.652;2023-08-08T15:14:41;20.40;98.90
43089;DHT22;28709;52.030;5.652;2023-08-08T15:17:07;20.30;99.10
43089;DHT22;28709;52.030;5.652;2023-08-08T15:19:33;20.20;99.20
43089;DHT22;28709;52.030;5.652;2023-08-08T15:21:58;20.20;99.30
43089;DHT22;28709;52.030;5.652;2023-08-08T15:24:24;20.20;99.30
43089;DHT22;28709;52.030;5.652;2023-08-08T15:26:50;20.20;99.00